sensor_id;sensor_type;location;lat;lon;timestamp;temperature;humidity
10864;DHT22;5485;37.558;126.950;2022-08-21T00:01:24;31.10;99.00
10864;DHT22;5485;37.558;126.950;2022-08-21T00:03:55;31.00;99.90
10864;DHT22;5485;37.558;126.950;2022-08-21T00:06:22;30.90;99.90
10864;DHT22;5485;37.558;126.950;2022-08-21T00:08:52;31.10;99.90
10864;DHT22;5485;37.558;126.950;2022-08-21T00:11:19;31.00;99.90
10864;DHT22;5485;37.558;126.950;2022-08-21T00:13:46;31.10;99.30
10864;DHT22;5485;37.558;126.950;2022-08-21T00:16:14;31.10;98.80
10864;DHT22;5485;37.558;126.950;2022-08-21T00:18:41;30.90;99.90
10864;DHT22;5485;37.558;126.950;2022-08-21T00:21:10;30.90;99.90
10864;DHT22;5485;37.558;126.950;2022-08-21T00:23:38;30.90;99.00
10864;DHT22;5485;37.558;126.950;2022-08-21T00:26:06;30.90;99.40
10864;DHT22;5485;37.558;126.950;2022-08-21T00:28:34;30.90;99.90
10864;DHT22;5485;37.558;126.950;2022-08-21T00:31:02;30.80;99.90
10864;DHT22;5485;37.558;126.950;2022-08-21T00:33:30;30.80;95.70
10864;DHT22;5485;37.558;126.950;2022-08-21T00:35:57;30.80;96.20
10864;DHT22;5485;37.558;126.950;2022-08-21T00:38:24;30.90;96.90
10864;DHT22;5485;37.558;126.950;2022-08-21T00:40:55;30.90;94.00
10864;DHT22;5485;37.558;126.950;2022-08-21T00:43:26;30.90;94.10
10864;DHT22;5485;37.558;126.950;2022-08-21T00:45:54;31.10;88.50
10864;DHT22;5485;37.558;126.950;2022-08-21T00:48:26;31.30;88.60
10864;DHT22;5485;37.558;126.950;2022-08-21T00:51:07;32.10;76.10
10864;DHT22;5485;37.558;126.950;2022-08-21T00:53:40;32.80;76.70
10864;DHT22;5485;37.558;126.950;2022-08-21T00:56:10;33.50;60.30
10864;DHT22;5485;37.558;126.950;2022-08-21T00:58:40;33.90;37.20
10864;DHT22;5485;37.558;126.950;2022-08-21T01:01:08;34.40;22.50
10864;DHT22;5485;37.558;126.950;2022-08-21T01:03:36;35.10;8.10
10864;DHT22;5485;37.558;126.950;2022-08-21T01:06:05;35.70;1.00
10864;DHT22;5485;37.558;126.950;2022-08-21T01:08:33;35.50;1.00
10864;DHT22;5485;37.558;126.950;2022-08-21T01:11:00;35.10;1.00
10864;DHT22;5485;37.558;126.950;2022-08-21T01:13:30;35.20;1.00
10864;DHT22;5485;37.558;126.950;2022-08-21T01:16:02;35.10;1.00
10864;DHT22;5485;37.558;126.950;2022-08-21T01:18:30;35.00;1.00
10864;DHT22;5485;37.558;126.950;2022-08-21T01:21:18;35.10;1.00
10864;DHT22;5485;37.558;126.950;2022-08-21T01:23:48;35.50;1.00
10864;DHT22;5485;37.558;126.950;2022-08-21T01:26:27;35.70;1.00
10864;DHT22;5485;37.558;126.950;2022-08-21T01:31:44;35.40;1.00
10864;DHT22;5485;37.558;126.950;2022-08-21T01:34:12;35.50;1.00
10864;DHT22;5485;37.558;126.950;2022-08-21T01:36:39;35.80;1.00
10864;DHT22;5485;37.558;126.950;2022-08-21T01:39:06;35.60;1.00
10864;DHT22;5485;37.558;126.950;2022-08-21T01:41:33;35.80;1.00
10864;DHT22;5485;37.558;126.950;2022-08-21T01:44:01;36.10;1.00
10864;DHT22;5485;37.558;126.950;2022-08-21T01:46:31;36.10;1.00
10864;DHT22;5485;37.558;126.950;2022-08-21T01:48:58;36.00;1.00
10864;DHT22;5485;37.558;126.950;2022-08-21T01:51:26;35.90;1.00
10864;DHT22;5485;37.558;126.950;2022-08-21T01:53:52;35.90;1.00
10864;DHT22;5485;37.558;126.950;2022-08-21T01:56:19;35.60;1.00
10864;DHT22;5485;37.558;126.950;2022-08-21T01:58:49;35.30;1.00
10864;DHT22;5485;37.558;126.950;2022-08-21T02:01:16;35.10;1.00
10864;DHT22;5485;37.558;126.950;2022-08-21T02:03:43;34.90;1.00
10864;DHT22;5485;37.558;126.950;2022-08-21T02:06:14;34.30;1.00
10864;DHT22;5485;37.558;126.950;2022-08-21T02:08:50;34.50;1.00
10864;DHT22;5485;37.558;126.950;2022-08-21T02:11:18;34.40;1.00
10864;DHT22;5485;37.558;126.950;2022-08-21T02:13:48;35.10;1.00
10864;DHT22;5485;37.558;126.950;2022-08-21T02:16:18;35.40;1.00
10864;DHT22;5485;37.558;126.950;2022-08-21T02:18:48;34.60;1.00
10864;DHT22;5485;37.558;126.950;2022-08-21T02:21:18;34.00;1.00
10864;DHT22;5485;37.558;126.950;2022-08-21T02:23:45;34.10;1.00
10864;DHT22;5485;37.558;126.950;2022-08-21T02:26:17;34.40;1.00
10864;DHT22;5485;37.558;126.950;2022-08-21T02:28:44;34.80;1.00
10864;DHT22;5485;37.558;126.950;2022-08-21T02:31:12;34.70;1.00
10864;DHT22;5485;37.558;126.950;2022-08-21T02:33:39;34.50;1.00
10864;DHT22;5485;37.558;126.950;2022-08-21T02:36:07;34.60;1.00
10864;DHT22;5485;37.558;126.950;2022-08-21T02:38:40;34.40;1.00
10864;DHT22;5485;37.558;126.950;2022-08-21T02:41:12;34.90;1.00
10864;DHT22;5485;37.558;126.950;2022-08-21T02:43:42;34.70;1.00
10864;DHT22;5485;37.558;126.950;2022-08-21T02:46:11;34.10;1.00
10864;DHT22;5485;37.558;126.950;2022-08-21T02:48:39;33.50;1.00
10864;DHT22;5485;37.558;126.950;2022-08-21T02:51:09;33.30;1.00
10864;DHT22;5485;37.558;126.950;2022-08-21T02:53:37;33.00;1.00
10864;DHT22;5485;37.558;126.950;2022-08-21T02:56:07;32.60;1.00
10864;DHT22;5485;37.558;126.950;2022-08-21T02:58:45;32.40;1.00
10864;DHT22;5485;37.558;126.950;2022-08-21T03:01:13;32.10;1.00
10864;DHT22;5485;37.558;126.950;2022-08-21T03:03:42;31.90;1.00
10864;DHT22;5485;37.558;126.950;2022-08-21T03:06:12;31.90;1.00
10864;DHT22;5485;37.558;126.950;2022-08-21T03:08:39;31.90;1.00
10864;DHT22;5485;37.558;126.950;2022-08-21T03:11:06;32.10;1.00
10864;DHT22;5485;37.558;126.950;2022-08-21T03:13:37;32.60;1.00
10864;DHT22;5485;37.558;126.950;2022-08-21T03:16:05;32.70;1.00
10864;DHT22;5485;37.558;126.950;2022-08-21T03:18:32;33.20;1.00
10864;DHT22;5485;37.558;126.950;2022-08-21T03:20:59;33.40;1.00
10864;DHT22;5485;37.558;126.950;2022-08-21T03:23:26;33.70;1.00
10864;DHT22;5485;37.558;126.950;2022-08-21T03:25:53;33.50;1.00
10864;DHT22;5485;37.558;126.950;2022-08-21T03:28:25;33.20;1.00
10864;DHT22;5485;37.558;126.950;2022-08-21T03:30:52;32.90;1.00
10864;DHT22;5485;37.558;126.950;2022-08-21T03:33:20;33.00;1.00
10864;DHT22;5485;37.558;126.950;2022-08-21T03:35:59;33.00;1.00
10864;DHT22;5485;37.558;126.950;2022-08-21T03:38:28;33.20;1.00
10864;DHT22;5485;37.558;126.950;2022-08-21T03:40:55;33.30;1.00
10864;DHT22;5485;37.558;126.950;2022-08-21T03:43:22;33.20;1.00
10864;DHT22;5485;37.558;126.950;2022-08-21T03:45:49;33.20;1.00
10864;DHT22;5485;37.558;126.950;2022-08-21T03:48:16;33.40;1.00
10864;DHT22;5485;37.558;126.950;2022-08-21T03:50:44;33.30;1.00
10864;DHT22;5485;37.558;126.950;2022-08-21T03:53:13;33.00;1.00
10864;DHT22;5485;37.558;126.950;2022-08-21T03:55:41;33.10;1.00
10864;DHT22;5485;37.558;126.950;2022-08-21T03:58:08;33.30;1.00
10864;DHT22;5485;37.558;126.950;2022-08-21T04:00:35;33.60;1.00
10864;DHT22;5485;37.558;126.950;2022-08-21T04:03:03;33.70;1.00
10864;DHT22;5485;37.558;126.950;2022-08-21T04:05:30;33.80;1.00
10864;DHT22;5485;37.558;126.950;2022-08-21T04:08:00;33.80;1.00
10864;DHT22;5485;37.558;126.950;2022-08-21T04:10:29;33.90;1.00
10864;DHT22;5485;37.558;126.950;2022-08-21T04:12:56;34.00;1.00
10864;DHT22;5485;37.558;126.950;2022-08-21T04:15:25;34.20;1.00
10864;DHT22;5485;37.558;126.950;2022-08-21T04:17:52;34.20;1.00
10864;DHT22;5485;37.558;126.950;2022-08-21T04:20:20;34.30;1.00
10864;DHT22;5485;37.558;126.950;2022-08-21T04:22:49;34.20;1.00
10864;DHT22;5485;37.558;126.950;2022-08-21T04:25:18;34.20;1.00
10864;DHT22;5485;37.558;126.950;2022-08-21T04:27:46;34.40;1.00
10864;DHT22;5485;37.558;126.950;2022-08-21T04:30:14;34.40;1.00
10864;DHT22;5485;37.558;126.950;2022-08-21T04:32:48;34.60;1.00
10864;DHT22;5485;37.558;126.950;2022-08-21T04:35:16;34.60;1.00
10864;DHT22;5485;37.558;126.950;2022-08-21T04:37:44;34.50;1.00
10864;DHT22;5485;37.558;126.950;2022-08-21T04:40:12;34.50;1.00
10864;DHT22;5485;37.558;126.950;2022-08-21T04:42:46;34.50;1.00
10864;DHT22;5485;37.558;126.950;2022-08-21T04:45:18;34.40;1.00
10864;DHT22;5485;37.558;126.950;2022-08-21T04:47:48;34.40;1.00
10864;DHT22;5485;37.558;126.950;2022-08-21T04:53:09;35.00;1.00
10864;DHT22;5485;37.558;126.950;2022-08-21T04:55:37;35.20;1.00
10864;DHT22;5485;37.558;126.950;2022-08-21T04:58:09;35.40;1.00
10864;DHT22;5485;37.558;126.950;2022-08-21T05:00:37;35.60;1.00
10864;DHT22;5485;37.558;126.950;2022-08-21T05:03:06;35.70;1.00
10864;DHT22;5485;37.558;126.950;2022-08-21T05:05:33;35.40;1.00
10864;DHT22;5485;37.558;126.950;2022-08-21T05:08:02;35.40;1.00
10864;DHT22;5485;37.558;126.950;2022-08-21T05:10:30;35.20;1.00
10864;DHT22;5485;37.558;126.950;2022-08-21T05:12:57;35.10;1.00
10864;DHT22;5485;37.558;126.950;2022-08-21T05:15:25;35.20;1.00
10864;DHT22;5485;37.558;126.950;2022-08-21T05:17:52;35.10;1.00
10864;DHT22;5485;37.558;126.950;2022-08-21T05:20:19;35.10;1.00
10864;DHT22;5485;37.558;126.950;2022-08-21T05:22:46;35.00;1.00
10864;DHT22;5485;37.558;126.950;2022-08-21T05:25:13;35.20;1.00
10864;DHT22;5485;37.558;126.950;2022-08-21T05:27:40;35.10;1.00
10864;DHT22;5485;37.558;126.950;2022-08-21T05:30:09;35.10;1.00
10864;DHT22;5485;37.558;126.950;2022-08-21T05:32:36;35.00;1.00
10864;DHT22;5485;37.558;126.950;2022-08-21T05:35:08;35.00;1.00
10864;DHT22;5485;37.558;126.950;2022-08-21T05:37:35;35.00;1.00
10864;DHT22;5485;37.558;126.950;2022-08-21T05:40:03;34.50;1.00
10864;DHT22;5485;37.558;126.950;2022-08-21T05:42:31;34.80;1.00
10864;DHT22;5485;37.558;126.950;2022-08-21T05:44:58;34.80;1.00
10864;DHT22;5485;37.558;126.950;2022-08-21T05:47:28;35.00;1.00
10864;DHT22;5485;37.558;126.950;2022-08-21T05:49:57;35.00;1.00
10864;DHT22;5485;37.558;126.950;2022-08-21T05:52:24;35.10;1.00
10864;DHT22;5485;37.558;126.950;2022-08-21T05:54:51;34.90;1.00
10864;DHT22;5485;37.558;126.950;2022-08-21T05:57:21;34.60;1.00
10864;DHT22;5485;37.558;126.950;2022-08-21T05:59:48;34.40;1.00
10864;DHT22;5485;37.558;126.950;2022-08-21T06:02:18;34.20;1.00
10864;DHT22;5485;37.558;126.950;2022-08-21T06:04:45;34.30;1.00
10864;DHT22;5485;37.558;126.950;2022-08-21T06:07:13;34.30;1.00
10864;DHT22;5485;37.558;126.950;2022-08-21T06:09:40;34.30;1.00
10864;DHT22;5485;37.558;126.950;2022-08-21T06:12:09;34.10;1.00
10864;DHT22;5485;37.558;126.950;2022-08-21T06:14:39;34.10;1.00
10864;DHT22;5485;37.558;126.950;2022-08-21T06:17:08;34.10;1.00
10864;DHT22;5485;37.558;126.950;2022-08-21T06:19:35;33.50;1.00
10864;DHT22;5485;37.558;126.950;2022-08-21T06:22:02;33.30;1.00
10864;DHT22;5485;37.558;126.950;2022-08-21T06:24:30;33.30;1.00
10864;DHT22;5485;37.558;126.950;2022-08-21T06:26:58;33.30;1.00
10864;DHT22;5485;37.558;126.950;2022-08-21T06:29:29;33.30;1.00
10864;DHT22;5485;37.558;126.950;2022-08-21T06:31:56;33.20;1.00
10864;DHT22;5485;37.558;126.950;2022-08-21T06:34:23;33.30;1.00
10864;DHT22;5485;37.558;126.950;2022-08-21T06:36:50;33.10;1.00
10864;DHT22;5485;37.558;126.950;2022-08-21T06:39:17;33.10;1.00
10864;DHT22;5485;37.558;126.950;2022-08-21T06:41:44;33.10;1.00
10864;DHT22;5485;37.558;126.950;2022-08-21T06:44:11;33.00;1.00
10864;DHT22;5485;37.558;126.950;2022-08-21T06:46:38;32.70;1.00
10864;DHT22;5485;37.558;126.950;2022-08-21T06:49:05;32.80;1.00
10864;DHT22;5485;37.558;126.950;2022-08-21T06:51:32;33.30;1.00
10864;DHT22;5485;37.558;126.950;2022-08-21T06:53:59;33.60;1.00
10864;DHT22;5485;37.558;126.950;2022-08-21T06:56:25;33.70;1.00
10864;DHT22;5485;37.558;126.950;2022-08-21T06:58:52;33.80;1.00
10864;DHT22;5485;37.558;126.950;2022-08-21T07:01:24;33.70;1.00
10864;DHT22;5485;37.558;126.950;2022-08-21T07:03:51;33.70;1.00
10864;DHT22;5485;37.558;126.950;2022-08-21T07:06:18;33.70;1.00
10864;DHT22;5485;37.558;126.950;2022-08-21T07:08:44;33.30;1.00
10864;DHT22;5485;37.558;126.950;2022-08-21T07:11:22;32.80;1.00
10864;DHT22;5485;37.558;126.950;2022-08-21T07:13:50;32.80;1.00
10864;DHT22;5485;37.558;126.950;2022-08-21T07:16:22;32.60;1.00
10864;DHT22;5485;37.558;126.950;2022-08-21T07:18:49;32.50;1.00
10864;DHT22;5485;37.558;126.950;2022-08-21T07:21:17;32.40;1.00
10864;DHT22;5485;37.558;126.950;2022-08-21T07:23:48;32.30;1.00
10864;DHT22;5485;37.558;126.950;2022-08-21T07:26:17;32.50;1.00
10864;DHT22;5485;37.558;126.950;2022-08-21T07:28:45;32.50;1.00
10864;DHT22;5485;37.558;126.950;2022-08-21T07:31:16;32.50;1.00
10864;DHT22;5485;37.558;126.950;2022-08-21T07:33:43;32.70;1.00
10864;DHT22;5485;37.558;126.950;2022-08-21T07:36:11;32.70;1.00
10864;DHT22;5485;37.558;126.950;2022-08-21T07:38:39;32.80;1.00
10864;DHT22;5485;37.558;126.950;2022-08-21T07:41:20;32.80;1.00
10864;DHT22;5485;37.558;126.950;2022-08-21T07:43:48;32.60;1.00
10864;DHT22;5485;37.558;126.950;2022-08-21T07:46:15;32.70;1.00
10864;DHT22;5485;37.558;126.950;2022-08-21T07:48:42;32.40;1.00
10864;DHT22;5485;37.558;126.950;2022-08-21T07:51:13;32.30;1.00
10864;DHT22;5485;37.558;126.950;2022-08-21T07:53:40;32.20;1.00
10864;DHT22;5485;37.558;126.950;2022-08-21T07:56:09;32.30;1.00
10864;DHT22;5485;37.558;126.950;2022-08-21T07:58:37;32.30;1.00
10864;DHT22;5485;37.558;126.950;2022-08-21T08:01:05;32.10;1.00
10864;DHT22;5485;37.558;126.950;2022-08-21T08:03:33;31.90;1.00
10864;DHT22;5485;37.558;126.950;2022-08-21T08:06:00;31.90;1.00
10864;DHT22;5485;37.558;126.950;2022-08-21T08:08:27;31.80;1.00
10864;DHT22;5485;37.558;126.950;2022-08-21T08:10:56;32.00;1.00
10864;DHT22;5485;37.558;126.950;2022-08-21T08:13:25;32.00;1.00
10864;DHT22;5485;37.558;126.950;2022-08-21T08:15:52;32.00;1.00
10864;DHT22;5485;37.558;126.950;2022-08-21T08:18:18;32.00;1.00
10864;DHT22;5485;37.558;126.950;2022-08-21T08:20:45;32.10;1.00
10864;DHT22;5485;37.558;126.950;2022-08-21T08:23:13;31.90;1.00
10864;DHT22;5485;37.558;126.950;2022-08-21T08:25:41;31.80;1.00
10864;DHT22;5485;37.558;126.950;2022-08-21T08:28:08;31.90;1.00
10864;DHT22;5485;37.558;126.950;2022-08-21T08:30:35;31.90;1.00
10864;DHT22;5485;37.558;126.950;2022-08-21T08:33:02;31.80;1.00
10864;DHT22;5485;37.558;126.950;2022-08-21T08:35:29;31.90;1.00
10864;DHT22;5485;37.558;126.950;2022-08-21T08:37:56;31.70;1.00
10864;DHT22;5485;37.558;126.950;2022-08-21T08:40:37;31.70;1.00
10864;DHT22;5485;37.558;126.950;2022-08-21T08:43:06;31.70;1.00
10864;DHT22;5485;37.558;126.950;2022-08-21T08:45:37;31.70;1.00
10864;DHT22;5485;37.558;126.950;2022-08-21T08:48:09;31.60;1.00
10864;DHT22;5485;37.558;126.950;2022-08-21T08:53:24;31.00;1.00
10864;DHT22;5485;37.558;126.950;2022-08-21T08:55:53;31.00;1.00
10864;DHT22;5485;37.558;126.950;2022-08-21T08:58:36;30.80;1.00
10864;DHT22;5485;37.558;126.950;2022-08-21T09:01:06;30.80;1.00
10864;DHT22;5485;37.558;126.950;2022-08-21T09:03:38;30.80;1.00
10864;DHT22;5485;37.558;126.950;2022-08-21T09:09:13;30.80;1.00
10864;DHT22;5485;37.558;126.950;2022-08-21T09:12:07;30.60;1.00
10864;DHT22;5485;37.558;126.950;2022-08-21T09:14:54;30.70;1.00
10864;DHT22;5485;37.558;126.950;2022-08-21T09:20:24;30.40;1.00
10864;DHT22;5485;37.558;126.950;2022-08-21T09:23:17;30.40;1.00
10864;DHT22;5485;37.558;126.950;2022-08-21T09:26:00;30.20;1.00
10864;DHT22;5485;37.558;126.950;2022-08-21T09:28:35;30.10;1.80
10864;DHT22;5485;37.558;126.950;2022-08-21T09:31:22;30.00;10.30
10864;DHT22;5485;37.558;126.950;2022-08-21T09:33:49;29.90;13.90
10864;DHT22;5485;37.558;126.950;2022-08-21T09:36:37;29.80;14.10
10864;DHT22;5485;37.558;126.950;2022-08-21T09:39:05;29.80;18.40
10864;DHT22;5485;37.558;126.950;2022-08-21T09:41:34;29.70;14.80
10864;DHT22;5485;37.558;126.950;2022-08-21T09:44:03;29.70;14.60
10864;DHT22;5485;37.558;126.950;2022-08-21T09:46:30;29.60;9.50
10864;DHT22;5485;37.558;126.950;2022-08-21T09:48:59;29.60;10.10
10864;DHT22;5485;37.558;126.950;2022-08-21T09:51:33;29.60;11.90
10864;DHT22;5485;37.558;126.950;2022-08-21T09:56:53;29.60;1.00
10864;DHT22;5485;37.558;126.950;2022-08-21T09:59:39;29.50;1.00
10864;DHT22;5485;37.558;126.950;2022-08-21T10:02:36;29.50;1.00
10864;DHT22;5485;37.558;126.950;2022-08-21T10:05:15;29.50;1.00
10864;DHT22;5485;37.558;126.950;2022-08-21T10:07:42;29.50;1.00
10864;DHT22;5485;37.558;126.950;2022-08-21T10:10:25;29.40;1.00
10864;DHT22;5485;37.558;126.950;2022-08-21T10:15:38;29.30;1.00
10864;DHT22;5485;37.558;126.950;2022-08-21T10:18:11;29.30;1.00
10864;DHT22;5485;37.558;126.950;2022-08-21T10:20:58;29.20;1.00
10864;DHT22;5485;37.558;126.950;2022-08-21T10:29:14;29.20;14.00
10864;DHT22;5485;37.558;126.950;2022-08-21T10:32:52;29.00;21.40
10864;DHT22;5485;37.558;126.950;2022-08-21T10:35:17;28.90;35.70
10864;DHT22;5485;37.558;126.950;2022-08-21T10:56:31;28.50;73.70
10864;DHT22;5485;37.558;126.950;2022-08-21T11:02:24;28.50;76.20
10864;DHT22;5485;37.558;126.950;2022-08-21T11:05:29;28.50;85.20
10864;DHT22;5485;37.558;126.950;2022-08-21T11:13:30;28.40;96.50
10864;DHT22;5485;37.558;126.950;2022-08-21T11:16:53;28.40;99.00
10864;DHT22;5485;37.558;126.950;2022-08-21T11:19:12;28.40;99.90
10864;DHT22;5485;37.558;126.950;2022-08-21T11:22:26;28.30;99.90
10864;DHT22;5485;37.558;126.950;2022-08-21T11:27:41;28.20;99.90
10864;DHT22;5485;37.558;126.950;2022-08-21T11:30:10;28.20;99.90
10864;DHT22;5485;37.558;126.950;2022-08-21T11:35:48;28.10;99.90
10864;DHT22;5485;37.558;126.950;2022-08-21T11:38:33;28.10;99.90
10864;DHT22;5485;37.558;126.950;2022-08-21T11:43:41;28.10;99.90
10864;DHT22;5485;37.558;126.950;2022-08-21T11:46:14;28.10;99.90
10864;DHT22;5485;37.558;126.950;2022-08-21T11:51:26;28.10;99.90
10864;DHT22;5485;37.558;126.950;2022-08-21T11:56:44;28.10;99.90
10864;DHT22;5485;37.558;126.950;2022-08-21T11:59:21;28.00;99.90
10864;DHT22;5485;37.558;126.950;2022-08-21T12:01:51;28.10;99.90
10864;DHT22;5485;37.558;126.950;2022-08-21T12:06:51;28.10;99.90
10864;DHT22;5485;37.558;126.950;2022-08-21T12:09:29;28.10;99.90
10864;DHT22;5485;37.558;126.950;2022-08-21T12:14:39;28.10;99.90
10864;DHT22;5485;37.558;126.950;2022-08-21T12:17:08;28.10;99.90
10864;DHT22;5485;37.558;126.950;2022-08-21T12:19:35;28.10;99.90
10864;DHT22;5485;37.558;126.950;2022-08-21T12:24:40;28.00;99.90
10864;DHT22;5485;37.558;126.950;2022-08-21T12:27:27;28.00;99.90
10864;DHT22;5485;37.558;126.950;2022-08-21T12:29:59;28.00;99.90
10864;DHT22;5485;37.558;126.950;2022-08-21T12:32:29;28.00;99.90
10864;DHT22;5485;37.558;126.950;2022-08-21T12:35:06;27.90;99.90
10864;DHT22;5485;37.558;126.950;2022-08-21T12:37:46;27.90;99.90
10864;DHT22;5485;37.558;126.950;2022-08-21T12:40:37;27.90;99.90
10864;DHT22;5485;37.558;126.950;2022-08-21T12:43:16;27.90;99.90
10864;DHT22;5485;37.558;126.950;2022-08-21T12:45:47;27.90;99.90
10864;DHT22;5485;37.558;126.950;2022-08-21T12:48:21;27.80;99.90
10864;DHT22;5485;37.558;126.950;2022-08-21T12:50:54;27.80;99.90
10864;DHT22;5485;37.558;126.950;2022-08-21T12:53:27;27.90;99.90
10864;DHT22;5485;37.558;126.950;2022-08-21T12:55:55;27.90;99.90
10864;DHT22;5485;37.558;126.950;2022-08-21T12:58:27;27.90;99.90
10864;DHT22;5485;37.558;126.950;2022-08-21T13:01:11;27.80;99.90
10864;DHT22;5485;37.558;126.950;2022-08-21T13:03:40;27.70;99.90
10864;DHT22;5485;37.558;126.950;2022-08-21T13:06:15;27.70;99.90
10864;DHT22;5485;37.558;126.950;2022-08-21T13:08:43;27.70;99.90
10864;DHT22;5485;37.558;126.950;2022-08-21T13:11:14;27.60;99.90
10864;DHT22;5485;37.558;126.950;2022-08-21T13:13:43;27.60;99.90
10864;DHT22;5485;37.558;126.950;2022-08-21T13:16:10;27.60;99.90
10864;DHT22;5485;37.558;126.950;2022-08-21T13:19:00;27.60;99.90
10864;DHT22;5485;37.558;126.950;2022-08-21T13:21:30;27.60;99.90
10864;DHT22;5485;37.558;126.950;2022-08-21T13:24:22;27.60;99.90
10864;DHT22;5485;37.558;126.950;2022-08-21T13:26:50;27.50;99.90
10864;DHT22;5485;37.558;126.950;2022-08-21T13:29:21;27.40;99.90
10864;DHT22;5485;37.558;126.950;2022-08-21T13:31:51;27.40;99.90
10864;DHT22;5485;37.558;126.950;2022-08-21T13:34:21;27.30;99.90
10864;DHT22;5485;37.558;126.950;2022-08-21T13:36:52;27.30;99.90
10864;DHT22;5485;37.558;126.950;2022-08-21T13:39:21;27.30;99.90
10864;DHT22;5485;37.558;126.950;2022-08-21T13:41:52;27.20;99.90
10864;DHT22;5485;37.558;126.950;2022-08-21T13:44:42;27.20;99.90
10864;DHT22;5485;37.558;126.950;2022-08-21T13:47:12;27.20;99.90
10864;DHT22;5485;37.558;126.950;2022-08-21T13:49:47;27.20;99.90
10864;DHT22;5485;37.558;126.950;2022-08-21T13:52:26;27.20;99.90
10864;DHT22;5485;37.558;126.950;2022-08-21T13:54:57;27.20;99.90
10864;DHT22;5485;37.558;126.950;2022-08-21T13:57:30;27.20;99.90
10864;DHT22;5485;37.558;126.950;2022-08-21T14:03:09;27.10;99.90
10864;DHT22;5485;37.558;126.950;2022-08-21T14:05:45;27.10;99.90
10864;DHT22;5485;37.558;126.950;2022-08-21T14:08:34;27.00;99.90
10864;DHT22;5485;37.558;126.950;2022-08-21T14:11:04;27.00;99.90
10864;DHT22;5485;37.558;126.950;2022-08-21T14:13:39;26.90;99.90
10864;DHT22;5485;37.558;126.950;2022-08-21T14:16:15;26.90;99.90
10864;DHT22;5485;37.558;126.950;2022-08-21T14:19:09;26.90;99.90
10864;DHT22;5485;37.558;126.950;2022-08-21T14:21:40;26.90;99.90
10864;DHT22;5485;37.558;126.950;2022-08-21T14:24:26;27.00;99.90
10864;DHT22;5485;37.558;126.950;2022-08-21T14:26:56;27.00;99.90
10864;DHT22;5485;37.558;126.950;2022-08-21T14:29:31;27.10;99.90
10864;DHT22;5485;37.558;126.950;2022-08-21T14:32:00;27.10;99.90
10864;DHT22;5485;37.558;126.950;2022-08-21T14:34:34;27.10;99.90
10864;DHT22;5485;37.558;126.950;2022-08-21T14:37:01;27.10;99.90
10864;DHT22;5485;37.558;126.950;2022-08-21T14:39:28;27.10;99.90
10864;DHT22;5485;37.558;126.950;2022-08-21T14:41:56;27.00;99.90
10864;DHT22;5485;37.558;126.950;2022-08-21T14:44:24;27.00;99.90
10864;DHT22;5485;37.558;126.950;2022-08-21T14:46:51;27.00;99.90
10864;DHT22;5485;37.558;126.950;2022-08-21T14:49:18;27.00;99.90
10864;DHT22;5485;37.558;126.950;2022-08-21T14:51:44;27.00;99.90
10864;DHT22;5485;37.558;126.950;2022-08-21T14:54:11;27.00;99.90
10864;DHT22;5485;37.558;126.950;2022-08-21T14:56:38;27.00;99.90
10864;DHT22;5485;37.558;126.950;2022-08-21T14:59:07;26.90;99.90
10864;DHT22;5485;37.558;126.950;2022-08-21T15:01:37;27.00;99.90
10864;DHT22;5485;37.558;126.950;2022-08-21T15:04:04;26.90;99.90
10864;DHT22;5485;37.558;126.950;2022-08-21T15:06:31;27.00;99.90
10864;DHT22;5485;37.558;126.950;2022-08-21T15:08:58;27.00;99.90
10864;DHT22;5485;37.558;126.950;2022-08-21T15:11:25;27.00;99.90
10864;DHT22;5485;37.558;126.950;2022-08-21T15:13:56;27.00;99.90
10864;DHT22;5485;37.558;126.950;2022-08-21T15:16:24;26.90;99.90
10864;DHT22;5485;37.558;126.950;2022-08-21T15:18:53;27.00;99.90
10864;DHT22;5485;37.558;126.950;2022-08-21T15:21:20;27.00;99.90
10864;DHT22;5485;37.558;126.950;2022-08-21T15:23:47;26.90;99.90
10864;DHT22;5485;37.558;126.950;2022-08-21T15:26:14;26.90;99.90
10864;DHT22;5485;37.558;126.950;2022-08-21T15:28:42;26.90;99.90
10864;DHT22;5485;37.558;126.950;2022-08-21T15:31:12;26.90;99.90
10864;DHT22;5485;37.558;126.950;2022-08-21T15:33:39;26.90;99.90
10864;DHT22;5485;37.558;126.950;2022-08-21T15:36:06;26.90;99.90
10864;DHT22;5485;37.558;126.950;2022-08-21T15:38:33;26.80;99.90
10864;DHT22;5485;37.558;126.950;2022-08-21T15:41:03;26.80;99.90
10864;DHT22;5485;37.558;126.950;2022-08-21T15:43:37;26.80;99.90
10864;DHT22;5485;37.558;126.950;2022-08-21T15:46:10;26.70;99.90
10864;DHT22;5485;37.558;126.950;2022-08-21T15:48:38;26.80;99.90
10864;DHT22;5485;37.558;126.950;2022-08-21T15:51:06;26.80;99.90
10864;DHT22;5485;37.558;126.950;2022-08-21T15:53:33;26.80;99.90
10864;DHT22;5485;37.558;126.950;2022-08-21T15:56:06;26.80;99.90
10864;DHT22;5485;37.558;126.950;2022-08-21T15:58:36;26.80;99.90
10864;DHT22;5485;37.558;126.950;2022-08-21T16:01:03;26.70;99.90
10864;DHT22;5485;37.558;126.950;2022-08-21T16:03:30;26.70;99.90
10864;DHT22;5485;37.558;126.950;2022-08-21T16:05:58;26.60;99.90
10864;DHT22;5485;37.558;126.950;2022-08-21T16:08:25;26.60;99.90
10864;DHT22;5485;37.558;126.950;2022-08-21T16:10:52;26.60;99.90
10864;DHT22;5485;37.558;126.950;2022-08-21T16:13:27;26.50;99.90
10864;DHT22;5485;37.558;126.950;2022-08-21T16:15:55;26.50;99.90
10864;DHT22;5485;37.558;126.950;2022-08-21T16:18:22;26.50;99.90
10864;DHT22;5485;37.558;126.950;2022-08-21T16:20:50;26.40;99.90
10864;DHT22;5485;37.558;126.950;2022-08-21T16:23:17;26.40;99.90
10864;DHT22;5485;37.558;126.950;2022-08-21T16:25:44;26.40;99.90
10864;DHT22;5485;37.558;126.950;2022-08-21T16:28:15;26.40;99.90
10864;DHT22;5485;37.558;126.950;2022-08-21T16:30:49;26.40;99.90
10864;DHT22;5485;37.558;126.950;2022-08-21T16:33:39;26.30;99.90
10864;DHT22;5485;37.558;126.950;2022-08-21T16:36:08;26.30;99.90
10864;DHT22;5485;37.558;126.950;2022-08-21T16:38:36;26.20;99.90
10864;DHT22;5485;37.558;126.950;2022-08-21T16:41:05;26.20;99.90
10864;DHT22;5485;37.558;126.950;2022-08-21T16:43:33;26.20;99.90
10864;DHT22;5485;37.558;126.950;2022-08-21T16:46:00;26.20;99.90
10864;DHT22;5485;37.558;126.950;2022-08-21T16:48:27;26.20;99.90
10864;DHT22;5485;37.558;126.950;2022-08-21T16:50:56;26.20;99.90
10864;DHT22;5485;37.558;126.950;2022-08-21T16:53:23;26.20;99.90
10864;DHT22;5485;37.558;126.950;2022-08-21T16:55:51;26.20;99.90
10864;DHT22;5485;37.558;126.950;2022-08-21T16:58:33;26.20;99.90
10864;DHT22;5485;37.558;126.950;2022-08-21T17:01:04;26.20;99.90
10864;DHT22;5485;37.558;126.950;2022-08-21T17:03:35;26.10;99.90
10864;DHT22;5485;37.558;126.950;2022-08-21T17:06:03;26.10;99.90